sensor_id;sensor_type;location;lat;lon;timestamp;pressure;altitude;pressure_sealevel;temperature;humidity
10310;BME280;5200;43.236;27.986;2023-03-14T00:02:26;100519.69;;;1.60;100.00
10310;BME280;5200;43.236;27.986;2023-03-14T00:04:54;100539.06;;;1.72;100.00
10310;BME280;5200;43.236;27.986;2023-03-14T00:07:21;100538.94;;;1.75;100.00
10310;BME280;5200;43.236;27.986;2023-03-14T00:09:50;100529.66;;;1.69;100.00
10310;BME280;5200;43.236;27.986;2023-03-14T00:12:16;100532.06;;;1.74;100.00
10310;BME280;5200;43.236;27.986;2023-03-14T00:14:43;100534.66;;;1.74;100.00
10310;BME280;5200;43.236;27.986;2023-03-14T00:17:10;100523.59;;;1.70;100.00
10310;BME280;5200;43.236;27.986;2023-03-14T00:19:40;100505.06;;;1.59;100.00
10310;BME280;5200;43.236;27.986;2023-03-14T00:22:07;100521.00;;;1.70;100.00
10310;BME280;5200;43.236;27.986;2023-03-14T00:24:34;100517.41;;;1.73;100.00
10310;BME280;5200;43.236;27.986;2023-03-14T00:27:00;100501.34;;;1.64;100.00
10310;BME280;5200;43.236;27.986;2023-03-14T00:29:27;100471.06;;;1.46;100.00
10310;BME280;5200;43.236;27.986;2023-03-14T00:31:54;100482.69;;;1.56;100.00
10310;BME280;5200;43.236;27.986;2023-03-14T00:34:21;100506.25;;;1.71;100.00
10310;BME280;5200;43.236;27.986;2023-03-14T00:36:49;100505.28;;;1.73;100.00
10310;BME280;5200;43.236;27.986;2023-03-14T00:39:16;100460.38;;;1.52;100.00
10310;BME280;5200;43.236;27.986;2023-03-14T00:41:42;100464.59;;;1.55;100.00
10310;BME280;5200;43.236;27.986;2023-03-14T00:44:09;100456.59;;;1.59;100.00
10310;BME280;5200;43.236;27.986;2023-03-14T00:46:36;100447.28;;;1.55;100.00
10310;BME280;5200;43.236;27.986;2023-03-14T00:49:03;100465.03;;;1.64;100.00
10310;BME280;5200;43.236;27.986;2023-03-14T00:51:29;100443.56;;;1.42;100.00
10310;BME280;5200;43.236;27.986;2023-03-14T00:53:59;100479.75;;;1.64;100.00
10310;BME280;5200;43.236;27.986;2023-03-14T00:56:26;100466.72;;;1.65;100.00
10310;BME280;5200;43.236;27.986;2023-03-14T00:58:53;100461.03;;;1.57;100.00
10310;BME280;5200;43.236;27.986;2023-03-14T01:01:21;100444.00;;;1.52;100.00
10310;BME280;5200;43.236;27.986;2023-03-14T01:03:51;100460.34;;;1.73;100.00
10310;BME280;5200;43.236;27.986;2023-03-14T01:06:19;100420.72;;;1.50;100.00
10310;BME280;5200;43.236;27.986;2023-03-14T01:08:47;100462.09;;;1.72;100.00
10310;BME280;5200;43.236;27.986;2023-03-14T01:11:16;100440.00;;;1.63;100.00
10310;BME280;5200;43.236;27.986;2023-03-14T01:13:43;100434.19;;;1.58;100.00
10310;BME280;5200;43.236;27.986;2023-03-14T01:16:12;100457.91;;;1.69;100.00
10310;BME280;5200;43.236;27.986;2023-03-14T01:18:40;100423.50;;;1.45;100.00
10310;BME280;5200;43.236;27.986;2023-03-14T01:21:11;100443.16;;;1.51;100.00
10310;BME280;5200;43.236;27.986;2023-03-14T01:23:38;100454.38;;;1.52;100.00
10310;BME280;5200;43.236;27.986;2023-03-14T01:26:08;100436.97;;;1.35;100.00
10310;BME280;5200;43.236;27.986;2023-03-14T01:28:37;100418.81;;;1.16;100.00
10310;BME280;5200;43.236;27.986;2023-03-14T01:31:04;100446.50;;;1.34;100.00
10310;BME280;5200;43.236;27.986;2023-03-14T01:33:32;100440.59;;;1.31;100.00
10310;BME280;5200;43.236;27.986;2023-03-14T01:36:00;100417.06;;;1.16;100.00
10310;BME280;5200;43.236;27.986;2023-03-14T01:38:27;100437.44;;;1.24;100.00
10310;BME280;5200;43.236;27.986;2023-03-14T01:40:54;100396.97;;;1.01;100.00
10310;BME280;5200;43.236;27.986;2023-03-14T01:43:21;100416.31;;;1.13;100.00
10310;BME280;5200;43.236;27.986;2023-03-14T01:49:20;100421.72;;;1.08;100.00
10310;BME280;5200;43.236;27.986;2023-03-14T01:51:53;100460.66;;;1.27;100.00
10310;BME280;5200;43.236;27.986;2023-03-14T01:54:25;100457.16;;;1.28;100.00
10310;BME280;5200;43.236;27.986;2023-03-14T01:56:57;100452.88;;;1.27;100.00
10310;BME280;5200;43.236;27.986;2023-03-14T01:59:25;100423.47;;;1.08;100.00
10310;BME280;5200;43.236;27.986;2023-03-14T02:01:54;100419.84;;;1.12;100.00
10310;BME280;5200;43.236;27.986;2023-03-14T02:04:23;100417.41;;;1.09;100.00
10310;BME280;5200;43.236;27.986;2023-03-14T02:06:59;100429.22;;;1.14;100.00
10310;BME280;5200;43.236;27.986;2023-03-14T02:09:27;100421.66;;;1.10;100.00
10310;BME280;5200;43.236;27.986;2023-03-14T02:11:54;100454.50;;;1.30;100.00
10310;BME280;5200;43.236;27.986;2023-03-14T02:14:29;100449.38;;;1.28;100.00
10310;BME280;5200;43.236;27.986;2023-03-14T02:16:56;100410.31;;;1.12;100.00
10310;BME280;5200;43.236;27.986;2023-03-14T02:19:35;100408.50;;;1.14;100.00
10310;BME280;5200;43.236;27.986;2023-03-14T02:22:09;100443.56;;;1.42;100.00
10310;BME280;5200;43.236;27.986;2023-03-14T02:24:43;100438.25;;;1.45;100.00
10310;BME280;5200;43.236;27.986;2023-03-14T02:27:16;100448.75;;;1.42;100.00
10310;BME280;5200;43.236;27.986;2023-03-14T02:29:50;100400.22;;;1.06;100.00
10310;BME280;5200;43.236;27.986;2023-03-14T02:32:19;100453.38;;;1.35;100.00
10310;BME280;5200;43.236;27.986;2023-03-14T02:34:52;100441.59;;;1.28;100.00
10310;BME280;5200;43.236;27.986;2023-03-14T02:37:22;100439.44;;;1.17;100.00
10310;BME280;5200;43.236;27.986;2023-03-14T02:39:50;100434.41;;;1.14;100.00
10310;BME280;5200;43.236;27.986;2023-03-14T02:42:19;100461.16;;;1.35;100.00
10310;BME280;5200;43.236;27.986;2023-03-14T02:44:51;100460.22;;;1.36;100.00
10310;BME280;5200;43.236;27.986;2023-03-14T02:47:20;100471.31;;;1.40;100.00
10310;BME280;5200;43.236;27.986;2023-03-14T02:49:49;100461.34;;;1.31;100.00
10310;BME280;5200;43.236;27.986;2023-03-14T02:52:17;100467.25;;;1.34;100.00
10310;BME280;5200;43.236;27.986;2023-03-14T02:54:43;100426.00;;;1.09;100.00
10310;BME280;5200;43.236;27.986;2023-03-14T02:57:10;100470.06;;;1.30;100.00
10310;BME280;5200;43.236;27.986;2023-03-14T02:59:38;100447.31;;;1.16;100.00
10310;BME280;5200;43.236;27.986;2023-03-14T03:02:05;100430.34;;;1.09;100.00
10310;BME280;5200;43.236;27.986;2023-03-14T03:04:32;100468.94;;;1.35;100.00
10310;BME280;5200;43.236;27.986;2023-03-14T03:06:59;100438.63;;;1.17;100.00
10310;BME280;5200;43.236;27.986;2023-03-14T03:09:25;100459.47;;;1.34;100.00
10310;BME280;5200;43.236;27.986;2023-03-14T03:11:52;100423.41;;;1.09;100.00
10310;BME280;5200;43.236;27.986;2023-03-14T03:14:19;100463.75;;;1.35;100.00
10310;BME280;5200;43.236;27.986;2023-03-14T03:16:47;100459.38;;;1.36;100.00
10310;BME280;5200;43.236;27.986;2023-03-14T03:19:14;100461.09;;;1.37;100.00
10310;BME280;5200;43.236;27.986;2023-03-14T03:21:43;100428.31;;;1.15;100.00
10310;BME280;5200;43.236;27.986;2023-03-14T03:24:10;100415.50;;;1.12;100.00
10310;BME280;5200;43.236;27.986;2023-03-14T03:26:36;100411.72;;;1.19;100.00
10310;BME280;5200;43.236;27.986;2023-03-14T03:29:03;100442.66;;;1.43;100.00
10310;BME280;5200;43.236;27.986;2023-03-14T03:31:30;100442.66;;;1.43;100.00
10310;BME280;5200;43.236;27.986;2023-03-14T03:33:58;100442.84;;;1.38;100.00
10310;BME280;5200;43.236;27.986;2023-03-14T03:36:26;100413.53;;;1.17;100.00
10310;BME280;5200;43.236;27.986;2023-03-14T03:38:53;100430.25;;;1.31;100.00
10310;BME280;5200;43.236;27.986;2023-03-14T03:41:19;100432.47;;;1.19;100.00
10310;BME280;5200;43.236;27.986;2023-03-14T03:43:46;100414.59;;;1.13;100.00
10310;BME280;5200;43.236;27.986;2023-03-14T03:46:13;100389.00;;;1.05;100.00
10310;BME280;5200;43.236;27.986;2023-03-14T03:48:40;100389.88;;;1.06;100.00
10310;BME280;5200;43.236;27.986;2023-03-14T03:51:11;100395.88;;;1.07;100.00
10310;BME280;5200;43.236;27.986;2023-03-14T03:53:39;100430.50;;;1.24;100.00
10310;BME280;5200;43.236;27.986;2023-03-14T03:56:06;100428.84;;;1.23;100.00
10310;BME280;5200;43.236;27.986;2023-03-14T03:58:33;100432.34;;;1.22;100.00
10310;BME280;5200;43.236;27.986;2023-03-14T04:01:00;100403.56;;;1.08;100.00
10310;BME280;5200;43.236;27.986;2023-03-14T04:03:27;100400.22;;;1.06;100.00
10310;BME280;5200;43.236;27.986;2023-03-14T04:06:01;100429.03;;;1.19;100.00
10310;BME280;5200;43.236;27.986;2023-03-14T04:08:29;100444.38;;;1.23;100.00
10310;BME280;5200;43.236;27.986;2023-03-14T04:10:56;100432.19;;;1.25;100.00
10310;BME280;5200;43.236;27.986;2023-03-14T04:13:24;100435.56;;;1.27;100.00
10310;BME280;5200;43.236;27.986;2023-03-14T04:15:51;100424.38;;;1.27;100.00
10310;BME280;5200;43.236;27.986;2023-03-14T04:18:18;100421.84;;;1.25;100.00
10310;BME280;5200;43.236;27.986;2023-03-14T04:20:45;100400.03;;;1.11;100.00
10310;BME280;5200;43.236;27.986;2023-03-14T04:23:12;100431.06;;;1.31;100.00
10310;BME280;5200;43.236;27.986;2023-03-14T04:25:40;100415.53;;;1.31;100.00
10310;BME280;5200;43.236;27.986;2023-03-14T04:28:07;100425.34;;;1.43;100.00
10310;BME280;5200;43.236;27.986;2023-03-14T04:30:34;100425.78;;;1.53;100.00
10310;BME280;5200;43.236;27.986;2023-03-14T04:33:00;100424.44;;;1.63;100.00
10310;BME280;5200;43.236;27.986;2023-03-14T04:35:29;100394.09;;;1.65;100.00
10310;BME280;5200;43.236;27.986;2023-03-14T04:37:56;100404.84;;;1.94;100.00
10310;BME280;5200;43.236;27.986;2023-03-14T04:40:23;100391.38;;;2.05;100.00
10310;BME280;5200;43.236;27.986;2023-03-14T04:42:51;100411.31;;;2.39;100.00
10310;BME280;5200;43.236;27.986;2023-03-14T04:45:18;100421.19;;;2.67;100.00
10310;BME280;5200;43.236;27.986;2023-03-14T04:47:45;100404.88;;;2.81;100.00
10310;BME280;5200;43.236;27.986;2023-03-14T04:50:12;100427.59;;;3.28;100.00
10310;BME280;5200;43.236;27.986;2023-03-14T04:52:38;100405.97;;;3.44;100.00
10310;BME280;5200;43.236;27.986;2023-03-14T04:55:06;100418.41;;;3.86;100.00
10310;BME280;5200;43.236;27.986;2023-03-14T04:57:33;100417.72;;;4.14;100.00
10310;BME280;5200;43.236;27.986;2023-03-14T05:00:01;100419.88;;;4.52;100.00
10310;BME280;5200;43.236;27.986;2023-03-14T05:02:31;100419.19;;;4.79;100.00
10310;BME280;5200;43.236;27.986;2023-03-14T05:04:58;100384.56;;;4.91;100.00
10310;BME280;5200;43.236;27.986;2023-03-14T05:07:25;100401.53;;;5.41;100.00
10310;BME280;5200;43.236;27.986;2023-03-14T05:09:52;100385.28;;;5.65;100.00
10310;BME280;5200;43.236;27.986;2023-03-14T05:12:18;100403.34;;;6.09;100.00
10310;BME280;5200;43.236;27.986;2023-03-14T05:14:45;100388.53;;;6.23;100.00
10310;BME280;5200;43.236;27.986;2023-03-14T05:17:14;100399.50;;;6.55;100.00
10310;BME280;5200;43.236;27.986;2023-03-14T05:19:42;100388.72;;;6.72;100.00
10310;BME280;5200;43.236;27.986;2023-03-14T05:22:08;100400.34;;;7.07;100.00
10310;BME280;5200;43.236;27.986;2023-03-14T05:24:35;100419.56;;;7.44;100.00
10310;BME280;5200;43.236;27.986;2023-03-14T05:27:02;100419.31;;;7.73;100.00
10310;BME280;5200;43.236;27.986;2023-03-14T05:29:30;100396.97;;;7.80;100.00
10310;BME280;5200;43.236;27.986;2023-03-14T05:31:56;100416.19;;;8.16;99.36
10310;BME280;5200;43.236;27.986;2023-03-14T05:34:25;100425.13;;;8.37;95.27
10310;BME280;5200;43.236;27.986;2023-03-14T05:36:51;100411.38;;;8.58;94.55
10310;BME280;5200;43.236;27.986;2023-03-14T05:39:18;100396.41;;;8.71;92.19
10310;BME280;5200;43.236;27.986;2023-03-14T05:41:45;100404.81;;;8.99;90.38
10310;BME280;5200;43.236;27.986;2023-03-14T05:44:12;100419.72;;;9.21;88.83
10310;BME280;5200;43.236;27.986;2023-03-14T05:46:39;100419.50;;;9.46;86.11
10310;BME280;5200;43.236;27.986;2023-03-14T05:49:05;100417.22;;;9.64;84.78
10310;BME280;5200;43.236;27.986;2023-03-14T05:51:34;100417.97;;;9.87;82.12
10310;BME280;5200;43.236;27.986;2023-03-14T05:54:00;100423.81;;;10.02;81.04
10310;BME280;5200;43.236;27.986;2023-03-14T05:56:27;100418.03;;;10.20;80.30
10310;BME280;5200;43.236;27.986;2023-03-14T05:58:54;100414.88;;;10.37;78.03
10310;BME280;5200;43.236;27.986;2023-03-14T06:01:21;100380.50;;;10.18;77.07
10310;BME280;5200;43.236;27.986;2023-03-14T06:03:47;100408.84;;;10.46;75.20
10310;BME280;5200;43.236;27.986;2023-03-14T06:06:14;100411.94;;;10.51;74.21
10310;BME280;5200;43.236;27.986;2023-03-14T06:08:43;100418.09;;;10.62;73.92
10310;BME280;5200;43.236;27.986;2023-03-14T06:11:10;100409.78;;;10.56;72.76
10310;BME280;5200;43.236;27.986;2023-03-14T06:13:37;100403.84;;;10.43;72.20
10310;BME280;5200;43.236;27.986;2023-03-14T06:16:05;100412.91;;;10.50;71.70
10310;BME280;5200;43.236;27.986;2023-03-14T06:18:31;100411.03;;;10.62;71.08
10310;BME280;5200;43.236;27.986;2023-03-14T06:20:59;100421.44;;;10.64;70.06
10310;BME280;5200;43.236;27.986;2023-03-14T06:23:26;100398.53;;;10.54;69.93
10310;BME280;5200;43.236;27.986;2023-03-14T06:25:54;100419.84;;;10.72;69.66
10310;BME280;5200;43.236;27.986;2023-03-14T06:28:21;100423.00;;;10.87;68.99
10310;BME280;5200;43.236;27.986;2023-03-14T06:30:47;100421.94;;;10.99;68.40
10310;BME280;5200;43.236;27.986;2023-03-14T06:33:14;100430.72;;;11.10;67.44
10310;BME280;5200;43.236;27.986;2023-03-14T06:35:41;100419.91;;;11.03;66.38
10310;BME280;5200;43.236;27.986;2023-03-14T06:38:08;100422.25;;;11.06;66.73
10310;BME280;5200;43.236;27.986;2023-03-14T06:40:34;100408.81;;;11.09;65.30
10310;BME280;5200;43.236;27.986;2023-03-14T06:43:03;100402.31;;;11.04;64.01
10310;BME280;5200;43.236;27.986;2023-03-14T06:45:30;100407.81;;;11.00;64.11
10310;BME280;5200;43.236;27.986;2023-03-14T06:47:56;100405.97;;;10.91;64.29
10310;BME280;5200;43.236;27.986;2023-03-14T06:50:23;100401.78;;;10.89;64.78
10310;BME280;5200;43.236;27.986;2023-03-14T06:52:50;100406.06;;;11.11;64.65
10310;BME280;5200;43.236;27.986;2023-03-14T06:55:17;100407.09;;;11.19;63.63
10310;BME280;5200;43.236;27.986;2023-03-14T06:57:44;100405.22;;;11.41;63.86
10310;BME280;5200;43.236;27.986;2023-03-14T07:00:13;100392.25;;;11.59;62.83
10310;BME280;5200;43.236;27.986;2023-03-14T07:02:40;100404.97;;;11.44;61.89
10310;BME280;5200;43.236;27.986;2023-03-14T07:05:08;100388.16;;;11.45;62.76
10310;BME280;5200;43.236;27.986;2023-03-14T07:07:35;100399.91;;;11.72;62.76
10310;BME280;5200;43.236;27.986;2023-03-14T07:10:03;100385.41;;;11.97;61.69
10310;BME280;5200;43.236;27.986;2023-03-14T07:12:29;100393.75;;;12.02;60.47
10310;BME280;5200;43.236;27.986;2023-03-14T07:14:56;100401.47;;;11.84;60.94
10310;BME280;5200;43.236;27.986;2023-03-14T07:17:24;100393.41;;;11.76;60.69
10310;BME280;5200;43.236;27.986;2023-03-14T07:19:51;100402.94;;;11.67;60.91
10310;BME280;5200;43.236;27.986;2023-03-14T07:22:18;100397.50;;;11.59;61.99
10310;BME280;5200;43.236;27.986;2023-03-14T07:24:45;100394.63;;;11.62;61.63
10310;BME280;5200;43.236;27.986;2023-03-14T07:27:11;100390.59;;;11.68;61.20
10310;BME280;5200;43.236;27.986;2023-03-14T07:29:38;100385.13;;;11.50;60.41
10310;BME280;5200;43.236;27.986;2023-03-14T07:32:05;100383.19;;;11.42;61.53
10310;BME280;5200;43.236;27.986;2023-03-14T07:34:34;100365.22;;;11.26;61.37
10310;BME280;5200;43.236;27.986;2023-03-14T07:37:01;100385.19;;;11.29;61.74
10310;BME280;5200;43.236;27.986;2023-03-14T07:39:29;100372.59;;;11.23;61.35
10310;BME280;5200;43.236;27.986;2023-03-14T07:41:56;100373.84;;;11.28;62.26
10310;BME280;5200;43.236;27.986;2023-03-14T07:44:23;100375.28;;;11.42;61.32
10310;BME280;5200;43.236;27.986;2023-03-14T07:46:49;100382.25;;;11.53;61.68
10310;BME280;5200;43.236;27.986;2023-03-14T07:49:16;100372.00;;;11.59;60.44
10310;BME280;5200;43.236;27.986;2023-03-14T07:51:47;100380.31;;;11.55;60.23
10310;BME280;5200;43.236;27.986;2023-03-14T07:54:14;100371.41;;;11.46;61.37
10310;BME280;5200;43.236;27.986;2023-03-14T07:56:41;100376.09;;;11.42;60.84
10310;BME280;5200;43.236;27.986;2023-03-14T07:59:07;100372.34;;;11.35;61.38
10310;BME280;5200;43.236;27.986;2023-03-14T08:01:34;100369.19;;;11.41;61.74
10310;BME280;5200;43.236;27.986;2023-03-14T08:04:01;100369.59;;;11.47;60.97
10310;BME280;5200;43.236;27.986;2023-03-14T08:06:28;100363.91;;;11.41;61.56
10310;BME280;5200;43.236;27.986;2023-03-14T08:08:56;100371.97;;;11.50;60.81
10310;BME280;5200;43.236;27.986;2023-03-14T08:11:23;100363.91;;;11.41;61.52
10310;BME280;5200;43.236;27.986;2023-03-14T08:13:49;100362.53;;;11.57;61.62
10310;BME280;5200;43.236;27.986;2023-03-14T08:16:17;100360.88;;;11.56;60.99
10310;BME280;5200;43.236;27.986;2023-03-14T08:18:43;100358.38;;;11.54;61.20
10310;BME280;5200;43.236;27.986;2023-03-14T08:21:10;100347.50;;;11.28;61.06
10310;BME280;5200;43.236;27.986;2023-03-14T08:23:37;100350.13;;;11.28;62.17
10310;BME280;5200;43.236;27.986;2023-03-14T08:26:06;100350.56;;;11.33;60.92
10310;BME280;5200;43.236;27.986;2023-03-14T08:28:33;100345.03;;;11.36;62.11
10310;BME280;5200;43.236;27.986;2023-03-14T08:31:00;100348.09;;;11.41;60.98
10310;BME280;5200;43.236;27.986;2023-03-14T08:33:28;100342.09;;;11.30;61.76
10310;BME280;5200;43.236;27.986;2023-03-14T08:35:57;100342.50;;;11.25;61.18
10310;BME280;5200;43.236;27.986;2023-03-14T08:38:24;100346.75;;;11.16;61.65
10310;BME280;5200;43.236;27.986;2023-03-14T08:40:55;100345.81;;;11.17;61.83
10310;BME280;5200;43.236;27.986;2023-03-14T08:43:24;100347.50;;;11.28;62.35
10310;BME280;5200;43.236;27.986;2023-03-14T08:45:51;100344.97;;;11.57;61.98
10310;BME280;5200;43.236;27.986;2023-03-14T08:48:18;100338.47;;;11.71;60.69
10310;BME280;5200;43.236;27.986;2023-03-14T08:50:45;100331.22;;;11.73;60.68
10310;BME280;5200;43.236;27.986;2023-03-14T08:53:12;100329.56;;;11.62;60.39
10310;BME280;5200;43.236;27.986;2023-03-14T08:55:38;100327.03;;;11.51;59.81
10310;BME280;5200;43.236;27.986;2023-03-14T08:58:05;100316.63;;;11.50;60.79
10310;BME280;5200;43.236;27.986;2023-03-14T09:00:33;100321.09;;;11.59;61.34
10310;BME280;5200;43.236;27.986;2023-03-14T09:03:00;100320.13;;;11.60;60.98
10310;BME280;5200;43.236;27.986;2023-03-14T09:05:27;100322.34;;;11.64;61.34
10310;BME280;5200;43.236;27.986;2023-03-14T09:07:54;100319.16;;;11.80;60.48
10310;BME280;5200;43.236;27.986;2023-03-14T09:10:20;100316.53;;;11.71;61.55
10310;BME280;5200;43.236;27.986;2023-03-14T09:12:47;100299.88;;;11.70;60.73
10310;BME280;5200;43.236;27.986;2023-03-14T09:15:14;100291.56;;;11.65;59.84
10310;BME280;5200;43.236;27.986;2023-03-14T09:17:43;100293.50;;;11.63;60.54
10310;BME280;5200;43.236;27.986;2023-03-14T09:20:11;100288.75;;;11.57;61.08
10310;BME280;5200;43.236;27.986;2023-03-14T09:22:39;100301.81;;;11.68;61.62
10310;BME280;5200;43.236;27.986;2023-03-14T09:25:07;100294.06;;;11.76;61.67
10310;BME280;5200;43.236;27.986;2023-03-14T09:27:34;100290.72;;;11.74;62.35
10310;BME280;5200;43.236;27.986;2023-03-14T09:30:00;100279.63;;;11.80;62.19
10310;BME280;5200;43.236;27.986;2023-03-14T09:32:27;100285.78;;;11.91;62.60
10310;BME280;5200;43.236;27.986;2023-03-14T09:34:55;100282.13;;;11.53;61.90
10310;BME280;5200;43.236;27.986;2023-03-14T09:37:22;100287.78;;;10.98;63.78
10310;BME280;5200;43.236;27.986;2023-03-14T09:39:49;100273.75;;;10.78;65.89
10310;BME280;5200;43.236;27.986;2023-03-14T09:42:18;100264.97;;;10.68;65.38
10310;BME280;5200;43.236;27.986;2023-03-14T09:44:53;100280.25;;;10.84;66.02
10310;BME280;5200;43.236;27.986;2023-03-14T09:47:22;100287.28;;;11.04;65.19
10310;BME280;5200;43.236;27.986;2023-03-14T09:49:49;100282.31;;;11.11;64.20
10310;BME280;5200;43.236;27.986;2023-03-14T09:52:21;100271.78;;;11.20;64.33
10310;BME280;5200;43.236;27.986;2023-03-14T09:54:51;100265.44;;;11.42;62.50
10310;BME280;5200;43.236;27.986;2023-03-14T09:57:21;100268.25;;;11.51;63.92
10310;BME280;5200;43.236;27.986;2023-03-14T09:59:50;100257.13;;;11.37;62.90
10310;BME280;5200;43.236;27.986;2023-03-14T10:02:19;100268.75;;;11.25;63.77
10310;BME280;5200;43.236;27.986;2023-03-14T10:04:49;100259.44;;;11.21;62.25
10310;BME280;5200;43.236;27.986;2023-03-14T10:07:19;100256.53;;;11.14;63.25
10310;BME280;5200;43.236;27.986;2023-03-14T10:09:49;100256.56;;;11.24;63.87
10310;BME280;5200;43.236;27.986;2023-03-14T10:12:16;100254.09;;;11.42;62.36
10310;BME280;5200;43.236;27.986;2023-03-14T10:14:49;100231.34;;;11.41;60.71
10310;BME280;5200;43.236;27.986;2023-03-14T10:17:17;100243.56;;;11.52;60.24
10310;BME280;5200;43.236;27.986;2023-03-14T10:19:52;100246.19;;;11.42;61.10
10310;BME280;5200;43.236;27.986;2023-03-14T10:22:21;100236.34;;;11.34;62.04
10310;BME280;5200;43.236;27.986;2023-03-14T10:24:52;100237.44;;;11.41;62.71
10310;BME280;5200;43.236;27.986;2023-03-14T10:27:21;100227.47;;;11.55;62.10
10310;BME280;5200;43.236;27.986;2023-03-14T10:29:53;100227.06;;;11.69;61.58
10310;BME280;5200;43.236;27.986;2023-03-14T10:32:23;100215.66;;;11.59;61.16
10310;BME280;5200;43.236;27.986;2023-03-14T10:35:07;100212.19;;;11.68;60.64
10310;BME280;5200;43.236;27.986;2023-03-14T10:37:35;100220.81;;;11.70;60.74
10310;BME280;5200;43.236;27.986;2023-03-14T10:40:13;100213.03;;;11.59;60.68
10310;BME280;5200;43.236;27.986;2023-03-14T10:42:42;100202.91;;;11.25;61.07
10310;BME280;5200;43.236;27.986;2023-03-14T10:45:25;100200.00;;;11.18;60.96
10310;BME280;5200;43.236;27.986;2023-03-14T10:47:54;100198.03;;;11.11;60.09
10310;BME280;5200;43.236;27.986;2023-03-14T10:50:26;100193.06;;;11.08;60.25
10310;BME280;5200;43.236;27.986;2023-03-14T10:52:56;100181.13;;;11.04;61.31
10310;BME280;5200;43.236;27.986;2023-03-14T10:55:24;100170.03;;;11.10;59.18
10310;BME280;5200;43.236;27.986;2023-03-14T10:57:52;100170.19;;;11.18;60.11
10310;BME280;5200;43.236;27.986;2023-03-14T11:00:21;100159.50;;;11.10;61.04
10310;BME280;5200;43.236;27.986;2023-03-14T11:03:08;100166.69;;;10.88;59.92
10310;BME280;5200;43.236;27.986;2023-03-14T11:05:40;100155.91;;;10.91;58.45
10310;BME280;5200;43.236;27.986;2023-03-14T11:08:19;100153.81;;;10.85;59.74
10310;BME280;5200;43.236;27.986;2023-03-14T11:10:51;100153.09;;;10.83;60.30
10310;BME280;5200;43.236;27.986;2023-03-14T11:13:23;100153.25;;;10.91;60.82
10310;BME280;5200;43.236;27.986;2023-03-14T11:16:02;100144.25;;;10.84;60.93
10310;BME280;5200;43.236;27.986;2023-03-14T11:19:20;100129.81;;;10.88;60.30
10310;BME280;5200;43.236;27.986;2023-03-14T11:21:55;100114.16;;;10.77;58.14
10310;BME280;5200;43.236;27.986;2023-03-14T11:24:41;100116.78;;;10.77;58.68
10310;BME280;5200;43.236;27.986;2023-03-14T11:27:17;100108.47;;;10.82;59.44
10310;BME280;5200;43.236;27.986;2023-03-14T11:29:52;100103.78;;;10.75;58.36
10310;BME280;5200;43.236;27.986;2023-03-14T11:32:27;100085.19;;;10.77;59.82
10310;BME280;5200;43.236;27.986;2023-03-14T11:34:59;100076.63;;;10.75;59.98
10310;BME280;5200;43.236;27.986;2023-03-14T11:37:32;100088.53;;;10.79;60.30
10310;BME280;5200;43.236;27.986;2023-03-14T11:40:06;100077.19;;;10.78;60.05
10310;BME280;5200;43.236;27.986;2023-03-14T11:42:35;100076.06;;;10.81;57.89
10310;BME280;5200;43.236;27.986;2023-03-14T11:45:03;100066.13;;;10.94;57.79
10310;BME280;5200;43.236;27.986;2023-03-14T11:47:33;100066.53;;;10.99;57.75
10310;BME280;5200;43.236;27.986;2023-03-14T11:50:08;100066.53;;;10.99;58.53
10310;BME280;5200;43.236;27.986;2023-03-14T11:52:41;100065.81;;;10.97;57.28
10310;BME280;5200;43.236;27.986;2023-03-14T11:55:19;100053.91;;;10.93;56.82
10310;BME280;5200;43.236;27.986;2023-03-14T11:57:49;100051.97;;;10.86;56.73
10310;BME280;5200;43.236;27.986;2023-03-14T12:00:18;100045.31;;;10.82;58.43
10310;BME280;5200;43.236;27.986;2023-03-14T12:02:50;100045.06;;;10.85;59.07
10310;BME280;5200;43.236;27.986;2023-03-14T12:05:30;100033.56;;;10.76;57.98
10310;BME280;5200;43.236;27.986;2023-03-14T12:08:36;100031.03;;;10.45;60.81
10310;BME280;5200;43.236;27.986;2023-03-14T12:11:11;100027.28;;;10.38;60.30
10310;BME280;5200;43.236;27.986;2023-03-14T12:13:39;100017.88;;;10.55;60.33
10310;BME280;5200;43.236;27.986;2023-03-14T12:16:19;100018.69;;;10.36;63.71
10310;BME280;5200;43.236;27.986;2023-03-14T12:18:47;100007.13;;;10.18;63.50
10310;BME280;5200;43.236;27.986;2023-03-14T12:21:13;99998.53;;;10.15;62.72
10310;BME280;5200;43.236;27.986;2023-03-14T12:23:42;100001.56;;;10.11;62.84
10310;BME280;5200;43.236;27.986;2023-03-14T12:26:17;100002.25;;;10.03;62.49
10310;BME280;5200;43.236;27.986;2023-03-14T12:28:50;100006.56;;;10.04;61.83
10310;BME280;5200;43.236;27.986;2023-03-14T12:31:37;99998.09;;;9.91;61.58
10310;BME280;5200;43.236;27.986;2023-03-14T12:34:27;99990.56;;;9.77;62.15
10310;BME280;5200;43.236;27.986;2023-03-14T12:37:14;99989.63;;;9.57;65.67
10310;BME280;5200;43.236;27.986;2023-03-14T12:39:49;99987.06;;;9.15;70.91
10310;BME280;5200;43.236;27.986;2023-03-14T12:42:37;99983.50;;;8.95;71.09
10310;BME280;5200;43.236;27.986;2023-03-14T12:45:15;99985.09;;;8.86;71.21
10310;BME280;5200;43.236;27.986;2023-03-14T12:47:56;99971.81;;;8.66;72.70
10310;BME280;5200;43.236;27.986;2023-03-14T12:50:32;99971.38;;;8.61;73.83
10310;BME280;5200;43.236;27.986;2023-03-14T12:56:06;99973.69;;;8.00;77.65
10310;BME280;5200;43.236;27.986;2023-03-14T12:58:39;99965.38;;;7.83;82.30
10310;BME280;5200;43.236;27.986;2023-03-14T13:01:16;99963.22;;;7.66;80.89
10310;BME280;5200;43.236;27.986;2023-03-14T13:03:45;99954.53;;;7.43;81.46
10310;BME280;5200;43.236;27.986;2023-03-14T13:06:13;99951.09;;;7.43;84.72
10310;BME280;5200;43.236;27.986;2023-03-14T13:09:35;99943.59;;;7.15;91.96